Airfield :
LOGIN :

Register | Disclaimer

   EN    FR    IT 

 










Legend :    VFR   Marginal VFR   IFR   Intensive IFR   Very Intensive IFR
Visi :
Ceiling :
>= 8 km
>= 3000ft
5 to 8 km
1000 to 3000 ft
1500m to 5 km
500 to 1000 ft
800 to 1500m
200 to 500 ft
< 800m
< 200 ft
Symbols :   Thunderstorms  Fog  Heavy snow  Heavy precipitations  Wind > 20 kt
SIGMETs :     Misc.  Thunderstorms  Icing  Turbulence  Mountain Waves  Volcanic Ashes







- Airport Elevation : 106 ft
- IATA code : NRN


EDLV - Weeze

CURRENT METAR :
  • 240720Z 20007KT 7000 -DZ BKN004 14/14 Q1020

EXPIRED METARs :
  • 240650Z 20008KT 170V230 3000 -DZ BR BKN004 14/13 Q1020
  • 240620Z 20008KT 170V240 4200 -DZ BR BKN003 13/13 Q1020
  • 240550Z 20008KT 5000 -DZ BKN004 13/13 Q1020
  • 240520Z 19008KT 170V230 7000 -DZ BKN003 13/13 Q1020
  • 240450Z 19006KT 170V240 4900 -DZ BKN003 13/13 Q1020

TAF TAF EDLV
Valid from the 24 at 06:00 until the 25 at 06:00 UTC


240500Z 2406/2506 20008KT 6000 BKN008
TEMPO 2406/2408 2500 -DZ BKN003
BECMG 2408/2411 BKN020
TEMPO 2413/2420 4000 RA BKN006
No reported NOTAMs for that airfield.



MET'MAP, your aeronautical weather chart ! - Copyright ORBIFLY December 2007 - Disclaimer

ORBIFLY MET'MAP TEAM :

Programming & Development : Alexandra Zaïnal
Concept & Development : Baudouin d'Aumeries
Co-Development & Prog : Marc-Olivier Méhu
Technical & hardware support : Manuel Goepfert

Contact : metmap@orbifly.com




SOURCES & CREDITS :

   NOAA